Time;durP1;ratioP1;P1;durP2;ratioP2;P2;SDS_P1;SDS_P2;PMS_P1;PMS_P2;Temp;Humidity;BMP_temperature;BMP_pressure;BME280_temperature;BME280_humidity;BME280_pressure;Samples;Min_cycle;Max_cycle;Signal;HPM_P1;HPM_P2
2022/10/16 00:01:14;;;;;;;19.60;10.67;;;;;;;-141.97;70.32;47669.00;5055334;28;20186;-80
2022/10/16 00:03:41;;;;;;;18.13;11.27;;;;;;;-141.97;70.41;47667.06;5057192;28;20177;-80
2022/10/16 00:06:07;;;;;;;19.37;11.40;;;;;;;-141.97;70.57;47672.84;5054130;28;20161;-81
2022/10/16 00:08:34;;;;;;;17.77;10.63;;;;;;;-141.97;70.36;47680.53;5053987;28;20168;-82
2022/10/16 00:11:14;;;;;;;21.10;10.90;;;;;;;-141.97;70.38;47718.97;5053259;28;20174;-82
2022/10/16 00:13:42;;;;;;;19.83;10.87;;;;;;;-141.97;70.71;47599.81;5035220;28;20169;-82
2022/10/16 00:16:08;;;;;;;16.37;9.90;;;;;;;-141.97;71.45;47692.06;5053176;28;20244;-82
2022/10/16 00:18:34;;;;;;;17.53;10.57;;;;;;;-141.97;71.85;47715.13;5053528;28;20200;-81
2022/10/16 00:21:04;;;;;;;19.77;11.00;;;;;;;-141.97;72.54;47622.88;5035462;28;20166;-81
2022/10/16 00:23:30;;;;;;;19.07;10.93;;;;;;;-141.97;72.47;47672.84;5035332;28;20169;-82
2022/10/16 00:26:01;;;;;;;19.27;10.80;;;;;;;-141.97;72.97;47692.06;5053498;28;20188;-81
2022/10/16 00:28:27;;;;;;;19.70;11.47;;;;;;;-141.97;73.59;47686.31;5034866;28;20263;-81
2022/10/16 00:30:53;;;;;;;18.50;11.13;;;;;;;-141.97;73.87;47699.75;5052762;28;20626;-81
2022/10/16 00:33:19;;;;;;;20.40;11.17;;;;;;;-141.97;74.15;47672.84;5052970;28;20161;-81
2022/10/16 00:35:44;;;;;;;18.47;11.37;;;;;;;-141.97;74.28;47690.16;5052823;28;20172;-81
2022/10/16 00:38:10;;;;;;;19.43;11.47;;;;;;;-141.97;74.32;47611.34;5052479;28;20189;-82
2022/10/16 00:40:35;;;;;;;19.63;11.17;;;;;;;-141.97;74.03;47788.19;5052671;28;20195;-81
2022/10/16 00:43:01;;;;;;;20.17;11.90;;;;;;;-141.97;74.34;47565.22;5052343;28;20637;-81
2022/10/16 00:45:26;;;;;;;20.43;12.00;;;;;;;-141.97;74.66;47672.84;5052373;28;20169;-81
2022/10/16 00:47:55;;;;;;;20.27;12.10;;;;;;;-141.97;74.50;47692.06;5052248;28;20165;-81
2022/10/16 00:50:26;;;;;;;20.97;12.33;;;;;;;-141.97;74.47;47680.53;5033639;28;20312;-81
2022/10/16 00:52:53;;;;;;;19.90;11.70;;;;;;;-141.97;74.23;47574.81;5052213;28;20248;-82
2022/10/16 00:55:19;;;;;;;27.13;12.43;;;;;;;-141.97;74.32;47778.56;5052199;28;20219;-81
2022/10/16 00:57:45;;;;;;;22.00;12.50;;;;;;;-141.97;74.37;47651.69;5052382;28;20189;-82
2022/10/16 01:00:15;;;;;;;25.10;13.93;;;;;;;-141.97;74.40;47653.63;5052522;28;20244;-82
2022/10/16 01:02:41;;;;;;;27.77;15.17;;;;;;;-141.97;74.37;47849.69;5051806;28;20169;-82
2022/10/16 01:05:06;;;;;;;22.40;13.53;;;;;;;-141.97;74.25;47765.09;5034166;28;20184;-82
2022/10/16 01:07:57;;;;;;;23.07;13.67;;;;;;;-141.97;74.32;47549.84;5052105;28;20165;-82
2022/10/16 01:11:00;;;;;;;24.33;14.13;;;;;;;-141.97;74.35;47642.09;5052079;28;20161;-82
2022/10/16 01:13:34;;;;;;;22.67;13.80;;;;;;;-141.97;75.12;47772.78;5033953;28;20226;-82
2022/10/16 01:16:13;;;;;;;27.30;16.03;;;;;;;-141.97;75.53;47678.63;5053048;28;20156;-82
2022/10/16 01:19:00;;;;;;;24.53;13.87;;;;;;;-141.97;76.19;47663.22;5051524;28;20189;-82
2022/10/16 01:21:34;;;;;;;25.20;13.23;;;;;;;-141.97;76.30;47680.53;5033703;28;20184;-82
2022/10/16 01:24:16;;;;;;;21.43;12.97;;;;;;;-141.97;76.86;47703.59;5052180;28;20156;-82
2022/10/16 01:26:48;;;;;;;28.97;12.87;;;;;;;-141.97;77.18;47722.81;5052416;28;20176;-81
2022/10/16 01:29:33;;;;;;;21.70;13.90;;;;;;;-141.97;77.35;47688.22;5054623;28;20188;-82
2022/10/16 01:32:15;;;;;;;25.73;13.63;;;;;;;-141.97;77.20;47669.00;5072689;28;20176;-83
2022/10/16 01:34:51;;;;;;;23.40;13.13;;;;;;;-141.97;76.76;47688.22;5051677;28;20181;-82
2022/10/16 01:37:29;;;;;;;23.87;12.93;;;;;;;-141.97;76.77;47665.16;5051620;28;20206;-82
2022/10/16 01:39:58;;;;;;;25.23;12.83;;;;;;;-141.97;76.56;47686.31;5051245;28;20199;-82
2022/10/16 01:42:31;;;;;;;22.10;13.50;;;;;;;-141.97;76.66;47626.72;5051400;28;20166;-81
2022/10/16 01:44:59;;;;;;;29.47;16.23;;;;;;;-141.97;76.25;47611.34;5051046;28;20157;-81
2022/10/16 01:47:27;;;;;;;28.87;15.63;;;;;;;-141.97;75.99;47682.47;5033338;28;20690;-81
2022/10/16 01:49:55;;;;;;;21.90;13.10;;;;;;;-141.97;76.72;47799.72;5033016;28;20312;-81
2022/10/16 01:52:25;;;;;;;24.10;13.20;;;;;;;-141.97;77.59;47717.06;5051082;28;20204;-82
2022/10/16 01:54:55;;;;;;;28.47;12.53;;;;;;;-141.97;77.24;47638.25;5051123;28;20176;-82
2022/10/16 01:57:21;;;;;;;21.67;12.73;;;;;;;-141.97;77.18;47647.84;5051479;28;20188;-82
2022/10/16 01:59:52;;;;;;;21.27;12.70;;;;;;;-141.97;77.45;47690.16;5051985;28;20157;-82
2022/10/16 02:02:20;;;;;;;25.00;13.20;;;;;;;-141.97;77.14;47584.44;5036871;28;20177;-82
2022/10/16 02:04:51;;;;;;;20.83;12.50;;;;;;;-141.97;76.76;47655.53;5055606;28;20164;-81
2022/10/16 02:07:17;;;;;;;20.70;12.87;;;;;;;-141.97;78.17;47797.78;5037324;28;20556;-82
2022/10/16 02:09:42;;;;;;;25.20;13.87;;;;;;;-141.97;78.48;47670.91;5053803;28;20173;-82
2022/10/16 02:12:15;;;;;;;28.30;15.20;;;;;;;-141.97;77.68;47615.19;5037738;28;20173;-82
2022/10/16 02:14:41;;;;;;;32.03;17.40;;;;;;;-141.97;76.97;47749.72;5054938;28;20170;-82
2022/10/16 02:17:15;;;;;;;36.83;21.00;;;;;;;-141.97;77.20;47594.03;5054989;28;20193;-82
2022/10/16 02:19:41;;;;;;;46.87;23.47;;;;;;;-141.97;77.88;47763.19;5037263;28;20180;-82
2022/10/16 02:22:12;;;;;;;32.13;18.70;;;;;;;-141.97;77.55;47624.78;5055762;28;20169;-81
2022/10/16 02:24:56;;;;;;;156.93;91.77;;;;;;;-141.97;77.58;47711.28;5036904;28;20239;-82
2022/10/16 02:27:33;;;;;;;326.20;210.10;;;;;;;-141.97;77.00;47644.00;5054958;28;20602;-82
2022/10/16 02:30:08;;;;;;;149.87;91.67;;;;;;;-141.97;77.01;47680.53;5054831;28;20162;-81
2022/10/16 02:32:35;;;;;;;84.47;51.33;;;;;;;-141.97;77.10;47659.38;5038894;28;20187;-82
2022/10/16 02:35:02;;;;;;;43.87;25.60;;;;;;;-141.97;77.32;47663.22;5054736;28;20171;-82
2022/10/16 02:37:28;;;;;;;29.20;16.90;;;;;;;-141.97;78.19;47674.78;5037609;28;20295;-81
2022/10/16 02:39:57;;;;;;;25.40;15.67;;;;;;;-141.97;79.03;47807.41;5037648;28;20655;-81
2022/10/16 02:42:28;;;;;;;25.67;14.23;;;;;;;-141.97;79.69;47713.22;5054684;28;20541;-82
2022/10/16 02:44:54;;;;;;;27.00;15.53;;;;;;;-141.97;80.97;47770.88;5054579;28;20166;-81
2022/10/16 02:47:19;;;;;;;35.13;18.63;;;;;;;-141.97;80.13;47676.69;5055549;28;20310;-81
2022/10/16 02:49:44;;;;;;;23.43;14.37;;;;;;;-141.97;80.21;47680.53;5056733;28;20166;-81
2022/10/16 02:52:10;;;;;;;29.93;15.40;;;;;;;-141.97;80.10;47657.47;5041570;28;20189;-82
2022/10/16 02:54:35;;;;;;;59.43;29.63;;;;;;;-141.97;79.66;47607.50;5036953;28;20177;-82
2022/10/16 02:57:00;;;;;;;62.70;29.23;;;;;;;-141.97;80.15;47661.31;5037459;28;20209;-82
2022/10/16 02:59:26;;;;;;;145.87;80.70;;;;;;;-141.97;79.78;47695.91;5037091;28;20734;-82
2022/10/16 03:01:51;;;;;;;83.37;39.37;;;;;;;-141.97;79.64;47601.72;5054251;28;20252;-82
2022/10/16 03:04:17;;;;;;;63.23;34.67;;;;;;;-141.97;79.40;47686.31;5054373;28;20168;-82
2022/10/16 03:06:42;;;;;;;66.63;36.00;;;;;;;-141.97;79.82;47499.84;5035866;28;20618;-82
2022/10/16 03:09:07;;;;;;;45.60;26.27;;;;;;;-141.97;79.49;47634.41;5054438;28;20173;-82
2022/10/16 03:11:33;;;;;;;129.10;59.47;;;;;;;-141.97;79.41;47799.72;5055654;28;20244;-81
2022/10/16 03:13:58;;;;;;;72.90;38.40;;;;;;;-141.97;79.84;47672.84;5053007;28;20162;-82
2022/10/16 03:16:24;;;;;;;79.83;39.53;;;;;;;-141.97;79.44;47749.72;5054187;28;20616;-81
2022/10/16 03:18:49;;;;;;;38.03;20.33;;;;;;;-141.97;79.58;47603.66;5036337;28;20314;-81
2022/10/16 03:21:15;;;;;;;27.63;16.20;;;;;;;-141.97;80.08;47661.31;5039515;28;20540;-81
2022/10/16 03:23:40;;;;;;;35.03;21.37;;;;;;;-141.97;80.93;47676.69;5054128;28;20256;-81
2022/10/16 03:26:06;;;;;;;30.87;17.43;;;;;;;-141.97;81.22;47703.59;5054772;28;20166;-80
2022/10/16 03:28:31;;;;;;;29.33;16.70;;;;;;;-141.97;81.82;47765.09;5053977;28;20215;-81
2022/10/16 03:30:57;;;;;;;32.10;18.23;;;;;;;-141.97;81.68;47569.06;5035582;28;20695;-82
2022/10/16 03:33:22;;;;;;;30.27;17.67;;;;;;;-141.97;81.50;47707.44;5053266;28;20184;-82
2022/10/16 03:35:53;;;;;;;32.13;17.87;;;;;;;-141.97;81.74;47630.56;5053406;28;20590;-81
2022/10/16 03:38:18;;;;;;;26.17;14.40;;;;;;;-141.97;81.94;47582.50;5036925;28;20197;-81
2022/10/16 03:40:43;;;;;;;26.77;14.10;;;;;;;-141.97;83.05;47595.97;5055095;28;20169;-81
2022/10/16 03:43:09;;;;;;;30.90;17.87;;;;;;;-141.97;83.18;47503.69;5053206;28;20169;-81
2022/10/16 03:45:34;;;;;;;73.83;37.93;;;;;;;-141.97;83.48;47676.69;5053244;28;20201;-81
2022/10/16 03:48:00;;;;;;;138.17;59.27;;;;;;;-141.97;84.12;47592.13;5053090;28;20161;-82
2022/10/16 03:50:25;;;;;;;50.17;26.07;;;;;;;-141.97;84.21;47757.41;5053440;28;20538;-82
2022/10/16 03:52:50;;;;;;;53.30;25.33;;;;;;;-141.97;85.27;47601.72;5061385;28;20181;-82
2022/10/16 03:55:16;;;;;;;37.50;21.20;;;;;;;-141.97;85.28;47684.38;5078164;28;20161;-82
2022/10/16 03:57:41;;;;;;;55.63;28.93;;;;;;;-141.97;85.25;47651.69;5055874;28;20189;-81
2022/10/16 04:00:07;;;;;;;56.07;28.20;;;;;;;-141.97;85.23;47688.22;5052948;28;20168;-81
2022/10/16 04:02:32;;;;;;;43.77;23.17;;;;;;;-141.97;85.65;47776.63;5052808;28;20617;-82
2022/10/16 04:04:58;;;;;;;28.80;15.80;;;;;;;-141.97;85.34;47630.56;5052700;28;20193;-81
2022/10/16 04:07:23;;;;;;;59.57;28.73;;;;;;;-141.97;86.83;47638.25;5052807;28;20314;-81
2022/10/16 04:09:49;;;;;;;40.17;19.37;;;;;;;-141.97;86.82;47701.69;5053966;28;20165;-83
2022/10/16 04:12:14;;;;;;;54.70;28.10;;;;;;;-141.97;86.72;47699.75;5053019;28;20161;-80
2022/10/16 04:14:39;;;;;;;73.23;35.57;;;;;;;-141.97;86.36;47638.25;5052918;28;20170;-80
2022/10/16 04:17:05;;;;;;;68.93;33.43;;;;;;;-141.97;86.86;47692.06;5052537;28;20704;-81
2022/10/16 04:19:30;;;;;;;128.43;61.07;;;;;;;-141.97;86.43;47772.78;5052606;28;20631;-81
2022/10/16 04:21:56;;;;;;;174.93;79.90;;;;;;;-141.97;85.96;47688.22;5034654;28;20184;-81
2022/10/16 04:24:21;;;;;;;155.77;73.93;;;;;;;-141.97;86.11;47793.94;5052308;28;20168;-81
2022/10/16 04:26:46;;;;;;;47.33;24.83;;;;;;;-141.97;86.08;47678.63;5034779;28;20177;-80
2022/10/16 04:29:12;;;;;;;41.30;22.57;;;;;;;-141.97;86.34;47715.13;5052174;28;20218;-81
2022/10/16 04:31:37;;;;;;;39.20;17.53;;;;;;;-141.97;86.63;47651.69;5052290;28;20190;-81
2022/10/16 04:34:03;;;;;;;27.40;16.13;;;;;;;-141.97;86.45;47730.50;5052440;28;20193;-81
2022/10/16 04:36:28;;;;;;;25.37;14.90;;;;;;;-141.97;86.79;47782.41;5052539;28;20558;-80
2022/10/16 04:38:53;;;;;;;30.03;14.57;;;;;;;-141.97;85.98;47688.22;5052458;28;20192;-82
2022/10/16 04:41:19;;;;;;;27.97;15.97;;;;;;;-141.97;85.61;47619.03;5052474;28;20173;-81
2022/10/16 04:43:44;;;;;;;23.57;14.10;;;;;;;-141.97;85.00;47699.75;5052150;28;20197;-81
2022/10/16 04:46:10;;;;;;;30.37;14.90;;;;;;;-141.97;84.88;47678.63;5053340;28;20170;-81
2022/10/16 04:48:35;;;;;;;28.43;14.83;;;;;;;-141.97;84.44;47678.63;5034224;28;20204;-81
2022/10/16 04:51:01;;;;;;;31.57;17.10;;;;;;;-141.97;84.63;47676.69;5052691;28;20217;-80
2022/10/16 04:53:26;;;;;;;62.13;30.47;;;;;;;-141.97;84.01;47647.84;5034346;28;20257;-81
2022/10/16 04:55:52;;;;;;;89.17;42.20;;;;;;;-141.97;83.71;47580.59;5052060;28;20189;-81
2022/10/16 04:58:17;;;;;;;114.07;55.43;;;;;;;-141.97;82.82;47736.28;5051821;28;20196;-81
2022/10/16 05:00:44;;;;;;;68.00;35.27;;;;;;;-141.97;82.96;47605.56;5033914;28;20169;-81
2022/10/16 05:03:09;;;;;;;35.33;18.53;;;;;;;-141.97;82.41;47519.06;5033924;28;20169;-81
2022/10/16 05:05:36;;;;;;;21.73;12.37;;;;;;;-141.97;82.53;47630.56;5034091;28;20199;-82
2022/10/16 05:08:02;;;;;;;24.93;13.83;;;;;;;-141.97;82.14;47772.78;5052733;28;20162;-81
2022/10/16 05:10:27;;;;;;;22.50;12.63;;;;;;;-141.97;82.13;47697.84;5051871;28;20161;-81
2022/10/16 05:12:53;;;;;;;19.13;11.97;;;;;;;-141.97;81.57;47584.44;5053608;28;20170;-81
2022/10/16 05:15:19;;;;;;;20.20;11.43;;;;;;;-141.97;81.83;47630.56;5051256;28;20271;-81
2022/10/16 05:17:44;;;;;;;23.43;12.20;;;;;;;-141.97;82.05;47784.34;5034076;28;20665;-82
2022/10/16 05:20:10;;;;;;;23.57;13.70;;;;;;;-141.97;81.55;47674.78;5052451;28;20164;-82
2022/10/16 05:22:36;;;;;;;62.37;32.13;;;;;;;-141.97;81.75;47676.69;5035657;28;20200;-82
2022/10/16 05:25:01;;;;;;;39.10;23.50;;;;;;;-141.97;83.12;47674.78;5035988;28;20169;-81
2022/10/16 05:27:27;;;;;;;22.57;13.10;;;;;;;-141.97;85.53;47709.38;5052650;28;20153;-81
2022/10/16 05:29:52;;;;;;;25.07;13.53;;;;;;;-141.97;86.19;47653.63;5055872;28;20633;-80
2022/10/16 05:32:18;;;;;;;84.50;39.27;;;;;;;-141.97;86.73;47705.53;5035904;28;20200;-81
2022/10/16 05:34:44;;;;;;;51.30;29.20;;;;;;;-141.97;86.75;47680.53;5051775;28;20530;-81
2022/10/16 05:37:11;;;;;;;25.67;13.63;;;;;;;-141.97;86.21;47649.78;5051986;28;20264;-81
2022/10/16 05:39:37;;;;;;;24.13;12.83;;;;;;;-141.97;86.35;47669.00;5052477;28;20215;-82
2022/10/16 05:42:03;;;;;;;23.40;13.70;;;;;;;-141.97;87.82;47680.53;5053108;28;20163;-81
2022/10/16 05:44:28;;;;;;;24.10;12.80;;;;;;;-141.97;88.16;47774.72;5037440;28;20678;-81
2022/10/16 05:46:54;;;;;;;22.57;12.60;;;;;;;-141.97;88.22;47680.53;5039346;28;20408;-82
2022/10/16 05:49:20;;;;;;;69.77;36.43;;;;;;;-141.97;88.40;47688.22;5064666;28;20173;-82
2022/10/16 05:51:45;;;;;;;46.13;25.67;;;;;;;-141.97;87.69;47694.00;5058935;28;20304;-81
2022/10/16 05:54:11;;;;;;;91.47;52.40;;;;;;;-141.97;87.28;47620.94;5038355;28;20691;-81
2022/10/16 05:56:36;;;;;;;33.30;20.53;;;;;;;-141.97;86.46;47740.13;5033952;28;20186;-82
2022/10/16 05:59:03;;;;;;;31.10;17.87;;;;;;;-141.97;86.49;47638.25;5032642;28;20181;-82
2022/10/16 06:01:29;;;;;;;44.43;24.97;;;;;;;-141.97;86.83;47619.03;5032047;28;20173;-82
2022/10/16 06:03:54;;;;;;;43.13;24.30;;;;;;;-141.97;87.40;47682.47;5024736;28;20582;-82
2022/10/16 06:06:22;;;;;;;56.63;32.20;;;;;;;-141.97;87.50;47672.84;5053076;28;20161;-81
2022/10/16 06:08:48;;;;;;;52.07;29.80;;;;;;;-141.97;86.29;47715.13;5053263;28;20153;-82
2022/10/16 06:11:19;;;;;;;48.80;28.20;;;;;;;-141.97;85.78;47669.00;5034676;28;20559;-81
2022/10/16 06:13:49;;;;;;;50.60;28.60;;;;;;;-141.97;84.72;47659.38;5054245;28;20154;-81
2022/10/16 06:16:15;;;;;;;41.90;26.57;;;;;;;-141.97;84.29;47722.81;5058167;28;20166;-82
2022/10/16 06:18:41;;;;;;;42.63;24.10;;;;;;;-141.97;83.13;47672.84;5055540;28;20197;-82
2022/10/16 06:21:27;;;;;;;36.30;22.43;;;;;;;-141.97;82.21;47780.47;5057062;28;20177;-81
2022/10/16 06:23:54;;;;;;;34.70;20.93;;;;;;;-141.97;82.62;47653.63;5034888;28;20185;-82
2022/10/16 06:26:23;;;;;;;39.87;22.53;;;;;;;-141.97;82.44;47669.00;5055254;28;20168;-82
2022/10/16 06:28:49;;;;;;;42.57;22.67;;;;;;;-141.97;81.46;47692.06;5036580;28;20165;-81
2022/10/16 06:31:16;;;;;;;33.37;18.23;;;;;;;-141.97;81.50;47680.53;5043153;28;20193;-82
2022/10/16 06:33:41;;;;;;;28.70;16.27;;;;;;;-141.97;80.24;47553.69;5038955;28;20197;-82
2022/10/16 06:36:10;;;;;;;40.60;19.07;;;;;;;-141.97;79.53;47718.97;5058884;28;20169;-81
2022/10/16 06:38:36;;;;;;;27.77;15.97;;;;;;;-141.97;78.24;47619.03;5058262;28;20177;-82
2022/10/16 06:41:02;;;;;;;27.97;16.23;;;;;;;-141.97;78.96;47703.59;5054858;28;20216;-82
2022/10/16 06:43:37;;;;;;;26.00;14.17;;;;;;;-141.97;77.92;47678.63;5052241;28;20613;-81
2022/10/16 06:46:04;;;;;;;23.60;13.93;;;;;;;-141.97;76.41;47647.84;5051944;28;20185;-81
2022/10/16 06:48:30;;;;;;;28.13;13.97;;;;;;;-141.97;75.54;47711.28;5054221;28;20667;-81
2022/10/16 06:51:04;;;;;;;21.13;12.63;;;;;;;-141.97;74.34;47603.66;5039107;28;20320;-81
2022/10/16 06:53:31;;;;;;;21.17;11.93;;;;;;;-141.97;74.26;47694.00;5059259;28;20166;-82
2022/10/16 06:55:57;;;;;;;44.83;27.57;;;;;;;-141.97;74.34;47594.03;5059277;28;20166;-81
2022/10/16 06:58:23;;;;;;;35.27;21.73;;;;;;;-141.97;73.23;47776.63;5061285;28;20201;-81
2022/10/16 07:00:54;;;;;;;18.50;12.60;;;;;;;-141.97;72.76;47703.59;5041309;28;20168;-81
2022/10/16 07:03:20;;;;;;;20.73;11.67;;;;;;;-141.97;71.77;47669.00;5057633;28;20219;-80
2022/10/16 07:05:45;;;;;;;19.00;11.73;;;;;;;-141.97;71.71;47678.63;5063623;28;20593;-81
2022/10/16 07:08:10;;;;;;;26.10;16.37;;;;;;;-141.97;71.40;47680.53;5062138;28;20231;-82
2022/10/16 07:10:36;;;;;;;20.67;13.70;;;;;;;-141.97;70.16;47722.81;5050496;28;20173;-82
2022/10/16 07:13:01;;;;;;;23.70;13.70;;;;;;;-141.97;68.91;47743.97;5066613;28;20217;-80
2022/10/16 07:15:27;;;;;;;20.77;11.80;;;;;;;-141.97;68.22;47684.38;5049267;28;20169;-82
2022/10/16 07:17:53;;;;;;;18.80;12.03;;;;;;;-141.97;67.06;47657.47;5068067;28;20204;-80
2022/10/16 07:20:19;;;;;;;23.93;13.40;;;;;;;-141.97;67.70;47674.78;5066696;28;20172;-81
2022/10/16 07:22:44;;;;;;;21.77;12.27;;;;;;;-141.97;68.23;47661.31;5064944;28;20165;-82
2022/10/16 07:25:10;;;;;;;17.30;11.67;;;;;;;-141.97;69.26;47624.78;5044460;28;20539;-82
2022/10/16 07:27:36;;;;;;;22.07;11.87;;;;;;;-141.97;69.65;47619.03;5054744;28;20164;-83
2022/10/16 07:30:02;;;;;;;19.07;11.87;;;;;;;-141.97;68.39;47642.09;5055163;28;20158;-81
2022/10/16 07:32:27;;;;;;;20.43;12.50;;;;;;;-141.97;68.38;47736.28;5053580;28;20622;-81
2022/10/16 07:34:53;;;;;;;20.13;13.03;;;;;;;-141.97;68.49;47653.63;5052329;28;20280;-82
2022/10/16 07:37:19;;;;;;;22.67;13.90;;;;;;;-141.97;66.56;47767.03;5054892;28;20188;-82
2022/10/16 07:39:44;;;;;;;19.63;12.07;;;;;;;-141.97;67.90;47718.97;5053611;28;20172;-82
2022/10/16 07:42:09;;;;;;;22.37;13.53;;;;;;;-141.97;66.69;47749.72;5053746;28;20169;-82
2022/10/16 07:44:35;;;;;;;21.80;13.10;;;;;;;-141.97;66.07;47680.53;5036189;28;20680;-81
2022/10/16 07:47:00;;;;;;;21.60;13.90;;;;;;;-141.97;65.79;47678.63;5054833;28;20154;-81
2022/10/16 07:49:26;;;;;;;24.57;14.87;;;;;;;-141.97;64.14;47818.94;5054593;28;20161;-81
2022/10/16 07:51:51;;;;;;;21.43;13.60;;;;;;;-141.97;63.01;47576.75;5053035;28;20220;-81
2022/10/16 07:54:16;;;;;;;28.90;17.50;;;;;;;-141.97;61.69;47659.38;5053563;28;20362;-82
2022/10/16 07:56:42;;;;;;;20.90;14.13;;;;;;;-141.97;61.33;47619.03;5052472;28;20252;-81
2022/10/16 07:59:07;;;;;;;21.13;12.17;;;;;;;-141.97;60.70;47732.44;5035534;28;20176;-82
2022/10/16 08:01:33;;;;;;;19.83;11.90;;;;;;;-141.97;60.53;47695.91;5053096;28;20170;-81
2022/10/16 08:03:58;;;;;;;22.57;13.00;;;;;;;-141.97;60.44;47826.63;5051837;28;20184;-82
2022/10/16 08:06:23;;;;;;;22.67;12.90;;;;;;;-141.97;60.20;47607.50;5052743;28;20183;-81
2022/10/16 08:08:49;;;;;;;24.23;13.63;;;;;;;-141.97;59.89;47553.69;5034979;28;20165;-81
2022/10/16 08:11:15;;;;;;;22.10;13.33;;;;;;;-141.97;59.28;47651.69;5034851;28;20165;-81
2022/10/16 08:13:41;;;;;;;21.93;12.27;;;;;;;-141.97;58.81;47669.00;5036271;28;20181;-82
2022/10/16 08:16:08;;;;;;;17.77;10.90;;;;;;;-141.97;58.74;47634.41;5053006;28;20185;-81
2022/10/16 08:18:40;;;;;;;17.97;10.67;;;;;;;-141.97;58.54;47611.34;5034813;28;20197;-81
2022/10/16 08:21:11;;;;;;;16.00;10.33;;;;;;;-141.97;57.69;47615.19;5053910;28;20166;-81
2022/10/16 08:23:37;;;;;;;14.47;10.07;;;;;;;-141.97;59.14;47634.41;5053106;28;20169;-80
2022/10/16 08:26:05;;;;;;;18.87;12.53;;;;;;;-141.97;58.82;47634.41;5058359;28;20238;-81
2022/10/16 08:28:31;;;;;;;20.00;12.30;;;;;;;-141.97;58.00;47607.50;5034880;28;20556;-82
2022/10/16 08:30:56;;;;;;;16.23;10.83;;;;;;;-141.97;56.74;47657.47;5034338;28;20176;-82
2022/10/16 08:33:22;;;;;;;20.07;15.07;;;;;;;-141.97;56.79;47601.72;5052401;28;20252;-82
2022/10/16 08:35:53;;;;;;;17.20;9.70;;;;;;;-141.97;56.48;47582.50;5052381;28;20204;-82
2022/10/16 08:38:19;;;;;;;20.33;12.53;;;;;;;-141.97;55.57;47647.84;5052260;28;20185;-82
2022/10/16 08:40:44;;;;;;;15.20;10.40;;;;;;;-141.97;54.78;47622.88;5034350;28;20192;-82
2022/10/16 08:43:52;;;;;;;32.17;16.03;;;;;;;-141.97;53.85;47615.19;5034557;28;20254;-82
2022/10/16 08:47:01;;;;;;;19.40;12.20;;;;;;;-141.97;52.71;47636.31;4956290;28;20195;-82
2022/10/16 08:49:27;;;;;;;16.60;11.07;;;;;;;-141.97;52.58;47611.34;4919656;29;20170;-81
2022/10/16 08:51:53;;;;;;;18.33;11.87;;;;;;;-141.97;52.75;47617.09;4916683;29;20225;-81
2022/10/16 08:54:57;;;;;;;15.30;10.93;;;;;;;-141.97;52.74;47642.09;4898264;29;20180;-83
2022/10/16 08:57:29;;;;;;;14.03;9.40;;;;;;;-141.97;51.39;47718.97;4861022;29;20271;-85
2022/10/16 09:00:00;;;;;;;13.63;9.43;;;;;;;-141.97;50.32;47613.25;4857833;29;20240;-82
2022/10/16 09:02:40;;;;;;;15.60;9.67;;;;;;;-141.97;48.73;47619.03;4857891;29;20368;-82
2022/10/16 09:05:55;;;;;;;12.50;9.00;;;;;;;-141.97;47.87;47611.34;4862302;29;20192;-83
2022/10/16 09:08:47;;;;;;;15.57;9.23;;;;;;;-141.97;49.83;47603.66;4839816;29;20193;-83
2022/10/16 09:11:52;;;;;;;11.53;8.60;;;;;;;-141.97;49.86;47599.81;4839524;29;20682;-81
2022/10/16 09:14:18;;;;;;;10.93;8.47;;;;;;;-141.97;49.63;47615.19;4838662;29;20200;-82
2022/10/16 09:16:57;;;;;;;10.07;7.93;;;;;;;-141.97;48.06;47584.44;4839546;29;20500;-82
2022/10/16 09:19:31;;;;;;;15.37;10.67;;;;;;;-141.97;47.60;47592.13;4838919;29;20196;-82
2022/10/16 09:21:59;;;;;;;13.43;9.10;;;;;;;-141.97;47.63;47511.38;4839101;29;20196;-82
2022/10/16 09:24:26;;;;;;;12.97;8.37;;;;;;;-141.97;46.63;47619.03;4930843;29;20629;-82
2022/10/16 09:26:51;;;;;;;14.33;9.10;;;;;;;-141.97;45.27;47615.19;4951379;29;20188;-82
2022/10/16 09:29:19;;;;;;;14.00;8.70;;;;;;;-141.97;44.77;47586.34;4988967;28;20191;-82
2022/10/16 09:31:45;;;;;;;12.17;7.73;;;;;;;-141.97;43.77;47595.97;4974131;28;20202;-82
2022/10/16 09:34:23;;;;;;;11.70;7.97;;;;;;;-141.97;43.15;47574.81;4973850;28;20171;-82
2022/10/16 09:36:50;;;;;;;10.87;7.73;;;;;;;-141.97;42.63;47615.19;4989881;28;20687;-82
2022/10/16 09:39:15;;;;;;;10.80;7.10;;;;;;;-141.97;41.96;47557.53;4990014;28;20200;-82
2022/10/16 09:41:44;;;;;;;9.53;6.97;;;;;;;-141.97;41.91;47444.13;4990026;28;20591;-81
2022/10/16 09:44:30;;;;;;;9.63;7.03;;;;;;;-141.97;42.28;47511.38;4973665;28;20701;-81
2022/10/16 09:47:12;;;;;;;10.70;7.23;;;;;;;-141.97;42.80;47795.88;5052191;28;20173;-81
2022/10/16 09:49:37;;;;;;;12.00;7.80;;;;;;;-141.97;42.88;47724.75;5054432;28;20516;-81
2022/10/16 09:52:05;;;;;;;10.67;7.07;;;;;;;-141.97;42.14;47605.56;5054364;28;20299;-81
2022/10/16 09:54:31;;;;;;;9.47;6.57;;;;;;;-141.97;41.08;47578.66;5037016;28;20570;-82
2022/10/16 09:57:07;;;;;;;7.67;5.90;;;;;;;-141.97;40.72;47569.06;5051190;28;20165;-82
2022/10/16 09:59:33;;;;;;;8.97;6.50;;;;;;;-141.97;40.57;47595.97;5050749;28;20168;-83
2022/10/16 10:02:10;;;;;;;8.17;5.80;;;;;;;-141.97;39.52;47459.50;5051313;28;20169;-81
2022/10/16 10:04:48;;;;;;;8.03;5.43;;;;;;;-141.97;39.13;47540.22;5051402;28;20538;-82
2022/10/16 10:07:25;;;;;;;8.23;5.47;;;;;;;-141.97;38.42;47494.09;5050623;28;20687;-82
2022/10/16 10:09:51;;;;;;;8.57;6.27;;;;;;;-141.97;40.10;47574.81;5034680;28;20645;-83
2022/10/16 10:12:32;;;;;;;8.43;6.50;;;;;;;-141.97;40.70;47767.03;5052627;28;20231;-82
2022/10/16 10:15:11;;;;;;;11.20;6.60;;;;;;;-141.97;40.26;47574.81;5052063;28;20162;-80
2022/10/16 10:17:50;;;;;;;9.30;6.73;;;;;;;-141.97;39.99;47580.59;5051970;28;20204;-81
2022/10/16 10:20:27;;;;;;;9.17;6.37;;;;;;;-141.97;40.29;47569.06;5053255;28;20199;-80
2022/10/16 10:22:55;;;;;;;9.30;6.87;;;;;;;-141.97;39.88;47569.06;5035504;28;20192;-82
2022/10/16 10:25:26;;;;;;;8.07;6.23;;;;;;;-141.97;39.01;47599.81;5056469;28;20244;-80
2022/10/16 10:28:07;;;;;;;7.43;6.13;;;;;;;-141.97;38.73;47582.50;5059038;28;20181;-82
2022/10/16 10:30:57;;;;;;;7.97;6.20;;;;;;;-141.97;37.71;47594.03;5061365;28;20161;-80
2022/10/16 10:33:37;;;;;;;11.23;6.30;;;;;;;-141.97;38.20;47567.13;5056778;28;20165;-80
2022/10/16 10:36:24;;;;;;;10.43;6.10;;;;;;;-141.97;37.61;47557.53;5056041;28;20181;-81
2022/10/16 10:38:58;;;;;;;7.00;5.70;;;;;;;-141.97;37.49;47590.19;5034577;28;20202;-81
2022/10/16 10:41:52;;;;;;;7.60;5.83;;;;;;;-141.97;37.85;47788.19;5035536;28;20220;-79
2022/10/16 10:44:43;;;;;;;8.03;6.07;;;;;;;-141.97;38.15;47592.13;5041895;28;20166;-80
2022/10/16 10:47:26;;;;;;;8.17;5.60;;;;;;;-141.97;38.51;47588.28;4978375;28;20227;-80
2022/10/16 10:50:04;;;;;;;8.53;6.30;;;;;;;-141.97;38.16;47584.44;4959015;28;20231;-82
2022/10/16 10:53:01;;;;;;;6.80;5.70;;;;;;;-141.97;37.68;47553.69;4973763;28;20670;-82
2022/10/16 10:55:49;;;;;;;9.00;5.97;;;;;;;-141.97;37.80;47574.81;4897299;29;20194;-81
2022/10/16 10:58:32;;;;;;;8.30;5.90;;;;;;;-141.97;38.46;47584.44;4897396;29;20285;-82
2022/10/16 11:01:17;;;;;;;8.37;6.07;;;;;;;-141.97;38.15;47540.22;4897447;29;20190;-80
2022/10/16 11:04:17;;;;;;;10.67;6.17;;;;;;;-141.97;38.24;47555.59;4882694;29;20194;-82
2022/10/16 11:06:52;;;;;;;7.60;5.80;;;;;;;-141.97;37.74;47567.13;4897702;29;20194;-80
2022/10/16 11:09:24;;;;;;;12.23;7.60;;;;;;;-141.97;37.86;47586.34;4897552;29;20181;-81
2022/10/16 11:12:06;;;;;;;9.47;5.90;;;;;;;-141.97;37.89;47572.91;4897260;29;20198;-83
2022/10/16 11:14:42;;;;;;;8.93;6.30;;;;;;;-141.97;37.80;47482.56;4898256;29;20178;-80
2022/10/16 11:17:16;;;;;;;8.80;6.20;;;;;;;-141.97;37.95;47592.13;4899636;29;20190;-80